createdAt,value
2023-05-11T00:01:40.873Z,54.17
2023-05-11T00:04:24.107Z,54.25
2023-05-11T00:07:01.545Z,55.13
2023-05-11T00:09:42.790Z,55.59
2023-05-11T00:12:15.705Z,55.24
2023-05-11T00:14:55.968Z,54.22
2023-05-11T00:17:47.906Z,54.54
2023-05-11T00:20:28.117Z,56.28
2023-05-11T00:23:04.387Z,56.95
2023-05-11T00:25:46.025Z,59.63
2023-05-11T00:28:38.515Z,60.39
2023-05-11T00:31:24.800Z,62.88
2023-05-11T00:34:08.171Z,61.17
2023-05-11T00:36:54.391Z,60.50
2023-05-11T00:39:40.422Z,61.47
2023-05-11T00:42:28.549Z,60.18
2023-05-11T00:45:12.387Z,59.07
2023-05-11T00:47:49.817Z,58.36
2023-05-11T00:50:28.834Z,56.91
2023-05-11T00:53:11.493Z,55.12
2023-05-11T00:55:56.567Z,55.12
2023-05-11T00:58:35.778Z,54.65
2023-05-11T01:01:22.065Z,54.62
2023-05-11T01:04:00.109Z,54.85
2023-05-11T01:06:53.164Z,53.84
2023-05-11T01:09:48.384Z,54.46
2023-05-11T01:12:49.148Z,53.61
2023-05-11T01:15:40.091Z,55.45
2023-05-11T01:18:35.691Z,55.25
2023-05-11T01:21:19.781Z,56.04
2023-05-11T01:24:10.379Z,56.05
2023-05-11T01:27:07.936Z,58.36
2023-05-11T01:30:14.641Z,56.29
2023-05-11T01:32:52.255Z,55.95
2023-05-11T01:35:37.490Z,57.15
2023-05-11T01:38:16.026Z,56.81
2023-05-11T01:41:00.257Z,56.91
2023-05-11T01:43:46.487Z,57.92
2023-05-11T01:46:27.527Z,57.45
2023-05-11T01:48:59.670Z,57.86
2023-05-11T01:51:40.823Z,59.08
2023-05-11T01:54:22.653Z,59.27
2023-05-11T01:56:57.496Z,60.40
2023-05-11T01:59:49.022Z,60.90
2023-05-11T02:02:25.937Z,60.71
2023-05-11T02:04:59.832Z,60.99
2023-05-11T02:07:36.554Z,59.73
2023-05-11T02:10:15.890Z,59.98
2023-05-11T02:12:55.793Z,59.84
2023-05-11T02:15:39.227Z,61.26
2023-05-11T02:18:18.114Z,60.44
2023-05-11T02:21:04.912Z,59.79
2023-05-11T02:23:46.949Z,60.85
2023-05-11T02:26:25.151Z,62.54
2023-05-11T02:29:04.781Z,63.39
2023-05-11T02:31:51.659Z,65.04
2023-05-11T02:34:41.260Z,64.87
2023-05-11T02:37:20.951Z,66.79
2023-05-11T02:40:03.818Z,65.87
2023-05-11T02:42:39.476Z,66.18
2023-05-11T02:45:22.597Z,67.74
2023-05-11T02:48:02.404Z,66.61
2023-05-11T02:50:39.948Z,68.92
2023-05-11T02:56:17.208Z,72.36
2023-05-11T02:59:07.878Z,72.50
2023-05-11T03:01:44.330Z,71.71
2023-05-11T03:04:22.789Z,65.63
2023-05-11T03:06:58.048Z,66.04
2023-05-11T03:09:49.400Z,68.63
2023-05-11T03:12:25.111Z,67.27
2023-05-11T03:15:05.914Z,63.24
2023-05-11T03:17:48.877Z,63.08
2023-05-11T03:20:29.322Z,63.48
2023-05-11T03:23:02.635Z,63.22
2023-05-11T03:25:47.441Z,64.52
2023-05-11T03:28:27.958Z,63.85
2023-05-11T03:31:12.783Z,63.25
2023-05-11T03:33:54.001Z,64.12
2023-05-11T03:36:30.824Z,66.84
2023-05-11T03:39:12.336Z,65.51
2023-05-11T03:41:56.725Z,62.65
2023-05-11T03:44:30.912Z,61.63
2023-05-11T03:47:18.722Z,62.69
2023-05-11T03:50:02.613Z,62.89
2023-05-11T03:52:40.836Z,62.83
2023-05-11T03:55:22.585Z,62.49
2023-05-11T03:57:58.332Z,63.84
2023-05-11T04:00:49.113Z,63.03
2023-05-11T04:03:31.512Z,63.92
2023-05-11T04:06:09.437Z,63.69
2023-05-11T04:08:50.474Z,62.06
2023-05-11T04:11:30.721Z,62.29
2023-05-11T04:14:23.959Z,64.41
2023-05-11T04:17:05.210Z,64.45
2023-05-11T04:19:43.971Z,63.64
2023-05-11T04:22:24.396Z,63.38
2023-05-11T04:25:07.091Z,62.67
2023-05-11T04:27:50.355Z,61.43
2023-05-11T04:30:31.412Z,62.32
2023-05-11T04:33:13.053Z,60.69
2023-05-11T04:35:59.027Z,59.98
2023-05-11T04:38:38.353Z,59.04
2023-05-11T04:41:24.054Z,58.32
2023-05-11T04:44:09.360Z,58.12
2023-05-11T04:46:51.421Z,59.86
2023-05-11T04:49:54.030Z,60.59
2023-05-11T04:52:34.680Z,58.65
2023-05-11T04:55:20.474Z,58.82
2023-05-11T04:58:01.359Z,58.25
2023-05-11T05:00:57.745Z,58.37
2023-05-11T05:03:36.452Z,57.20
2023-05-11T05:06:28.590Z,58.25
2023-05-11T05:09:22.898Z,58.44
2023-05-11T05:12:17.632Z,59.98
2023-05-11T05:15:07.177Z,59.47
2023-05-11T05:17:55.624Z,60.08
2023-05-11T05:20:42.753Z,59.95
2023-05-11T05:23:29.449Z,59.66
2023-05-11T05:26:12.796Z,58.30
2023-05-11T05:29:05.035Z,59.33
2023-05-11T05:31:51.425Z,58.40
2023-05-11T05:34:34.876Z,59.05
2023-05-11T05:37:24.371Z,59.10
2023-05-11T05:40:12.839Z,58.37
2023-05-11T05:43:06.333Z,56.61
2023-05-11T05:45:52.496Z,57.51
2023-05-11T05:48:29.369Z,60.00
2023-05-11T05:51:04.881Z,58.85
2023-05-11T05:53:45.337Z,57.52
2023-05-11T05:56:31.628Z,59.89
2023-05-11T05:59:20.044Z,60.74
2023-05-11T06:02:12.685Z,61.74
2023-05-11T06:04:58.652Z,59.00
2023-05-11T06:07:42.994Z,58.49
2023-05-11T06:10:23.920Z,59.22
2023-05-11T06:13:17.551Z,59.96
2023-05-11T06:16:04.317Z,60.45
2023-05-11T06:18:56.098Z,59.64
2023-05-11T06:21:41.833Z,60.11
2023-05-11T06:24:36.119Z,60.91
2023-05-11T06:27:21.356Z,60.88
2023-05-11T06:30:09.017Z,61.04
2023-05-11T06:33:00.389Z,61.96
2023-05-11T06:36:06.625Z,61.56
2023-05-11T06:38:49.368Z,63.53
2023-05-11T06:42:06.765Z,63.47
2023-05-11T06:45:01.354Z,62.73
2023-05-11T06:47:40.022Z,64.94
2023-05-11T06:50:20.922Z,66.18
2023-05-11T06:52:58.149Z,64.60
2023-05-11T06:55:43.576Z,63.81
2023-05-11T06:58:29.577Z,63.15
2023-05-11T07:01:15.979Z,65.35
2023-05-11T07:04:03.562Z,65.43
2023-05-11T07:06:41.596Z,64.18
2023-05-11T07:09:29.610Z,63.53
2023-05-11T07:12:18.771Z,64.67
2023-05-11T07:14:59.088Z,64.03
2023-05-11T07:17:57.903Z,65.35
2023-05-11T07:20:44.839Z,63.02
2023-05-11T07:23:29.940Z,63.13
2023-05-11T07:26:11.168Z,63.26
2023-05-11T07:28:49.913Z,63.36
2023-05-11T07:31:36.554Z,62.78
2023-05-11T07:34:25.298Z,65.14
2023-05-11T07:37:17.113Z,64.17
2023-05-11T07:42:55.255Z,61.01
2023-05-11T07:45:28.059Z,62.71
2023-05-11T07:48:14.529Z,60.07
2023-05-11T07:50:55.825Z,59.54
2023-05-11T07:53:36.741Z,59.57
2023-05-11T07:56:23.278Z,54.62
2023-05-11T07:59:08.631Z,55.16
2023-05-11T08:01:53.244Z,54.66
2023-05-11T08:04:39.104Z,53.28
2023-05-11T08:07:26.000Z,51.22
2023-05-11T08:10:10.035Z,50.65
2023-05-11T08:13:01.780Z,51.04
2023-05-11T08:15:45.251Z,51.09
2023-05-11T08:18:24.205Z,49.81
2023-05-11T08:21:10.872Z,48.99
2023-05-11T08:24:00.624Z,49.41
2023-05-11T08:26:46.881Z,51.06
2023-05-11T08:29:40.088Z,45.51
2023-05-11T08:32:18.414Z,44.49
2023-05-11T08:35:07.396Z,46.42
2023-05-11T08:37:55.012Z,44.09
2023-05-11T08:40:46.746Z,45.25
2023-05-11T08:43:31.270Z,44.82
2023-05-11T08:46:08.059Z,42.25
2023-05-11T08:48:50.484Z,44.93
2023-05-11T08:51:34.018Z,44.91
2023-05-11T08:54:09.279Z,46.70
2023-05-11T08:57:09.035Z,44.69
2023-05-11T08:59:54.634Z,43.31
2023-05-11T09:02:36.493Z,46.86
2023-05-11T09:05:23.351Z,44.13
2023-05-11T09:08:08.994Z,43.62
2023-05-11T09:10:49.705Z,43.32
2023-05-11T09:13:35.981Z,41.90
2023-05-11T09:16:33.032Z,42.29
2023-05-11T09:19:22.450Z,43.41
2023-05-11T09:22:07.871Z,43.23
2023-05-11T09:24:48.353Z,43.13
2023-05-11T09:27:30.038Z,42.72
2023-05-11T09:30:22.080Z,45.46
2023-05-11T09:33:26.465Z,45.58
2023-05-11T09:36:06.135Z,43.60
2023-05-11T09:38:57.302Z,42.11
2023-05-11T09:41:54.907Z,43.21
2023-05-11T09:44:38.200Z,41.62
2023-05-11T09:47:27.953Z,40.44
2023-05-11T09:50:18.853Z,43.05
2023-05-11T09:53:07.217Z,39.54
2023-05-11T09:55:51.697Z,40.40
2023-05-11T09:58:48.858Z,40.32
2023-05-11T10:01:45.029Z,40.77
2023-05-11T10:04:40.784Z,41.27
2023-05-11T10:07:39.305Z,39.13
2023-05-11T10:10:22.872Z,38.24
2023-05-11T10:13:03.601Z,38.44
2023-05-11T10:15:41.011Z,37.63
2023-05-11T10:18:27.018Z,37.08
2023-05-11T10:21:18.277Z,40.81
2023-05-11T10:23:57.034Z,39.12
2023-05-11T10:26:36.393Z,37.82
2023-05-11T10:29:22.071Z,38.10
2023-05-11T10:32:02.124Z,38.05
2023-05-11T10:34:51.026Z,38.88
2023-05-11T10:37:24.516Z,36.79
2023-05-11T10:40:10.258Z,37.10
2023-05-11T10:43:13.471Z,38.42
2023-05-11T10:46:33.036Z,40.07
2023-05-11T10:49:42.863Z,37.27
2023-05-11T10:53:12.250Z,35.09
2023-05-11T10:56:24.178Z,37.22
2023-05-11T10:59:14.336Z,37.14
2023-05-11T11:02:00.556Z,35.86
2023-05-11T11:04:55.002Z,35.13
2023-05-11T11:07:35.738Z,35.26
2023-05-11T11:10:09.175Z,34.19
2023-05-11T11:13:07.126Z,35.35
2023-05-11T11:16:00.832Z,34.41
2023-05-11T11:18:38.881Z,34.48
2023-05-11T11:21:42.793Z,34.73
2023-05-11T11:24:44.891Z,33.31
2023-05-11T11:27:43.326Z,34.09
2023-05-11T11:30:34.814Z,34.20
2023-05-11T11:33:48.157Z,32.81
2023-05-11T11:36:56.377Z,33.52
2023-05-11T11:39:25.567Z,30.90
2023-05-11T11:42:14.028Z,33.20
2023-05-11T11:45:17.897Z,31.82
2023-05-11T11:48:20.860Z,30.79
2023-05-11T11:51:13.462Z,32.18
2023-05-11T11:54:09.066Z,31.80
2023-05-11T11:56:52.982Z,33.00
2023-05-11T11:59:31.165Z,33.44
2023-05-11T12:02:10.755Z,32.04
2023-05-11T12:05:14.315Z,32.00
2023-05-11T12:07:59.259Z,33.29
2023-05-11T12:10:36.397Z,32.73
2023-05-11T12:13:26.377Z,32.60
2023-05-11T12:16:22.950Z,32.65
2023-05-11T12:19:04.507Z,32.82
2023-05-11T12:21:47.804Z,31.88
2023-05-11T12:24:29.509Z,31.95
2023-05-11T12:27:12.134Z,32.82
2023-05-11T12:30:23.348Z,31.50
2023-05-11T12:33:13.550Z,30.60
2023-05-11T12:36:04.444Z,33.57
2023-05-11T12:38:48.642Z,30.73
2023-05-11T12:41:39.239Z,30.62
2023-05-11T12:44:34.993Z,33.06
2023-05-11T12:47:30.382Z,29.50
2023-05-11T12:50:12.068Z,29.43
2023-05-11T12:52:56.807Z,30.02
2023-05-11T12:55:43.232Z,31.84
2023-05-11T12:58:26.634Z,33.43
2023-05-11T13:01:02.024Z,33.82
2023-05-11T13:03:54.645Z,33.34
2023-05-11T13:06:29.279Z,32.27
2023-05-11T13:09:28.077Z,32.77
2023-05-11T13:12:41.596Z,32.48
2023-05-11T13:15:29.038Z,32.80
2023-05-11T13:18:16.535Z,32.90
2023-05-11T13:21:13.913Z,32.05
2023-05-11T13:23:57.672Z,32.82
2023-05-11T13:26:54.999Z,31.82
2023-05-11T13:29:39.330Z,29.71
2023-05-11T13:32:15.228Z,31.88
2023-05-11T13:34:59.110Z,29.28
2023-05-11T13:37:41.463Z,28.95
2023-05-11T13:40:25.047Z,28.80
2023-05-11T13:43:04.173Z,29.41
2023-05-11T13:46:00.376Z,30.25
2023-05-11T13:48:43.943Z,28.58
2023-05-11T13:51:23.021Z,29.18
2023-05-11T13:54:13.276Z,29.94
2023-05-11T13:56:54.389Z,29.27
2023-05-11T13:59:40.636Z,30.19
2023-05-11T14:02:25.401Z,29.93
2023-05-11T14:05:07.233Z,29.97
2023-05-11T14:07:59.302Z,30.63
2023-05-11T14:10:48.830Z,30.71
2023-05-11T14:13:40.952Z,30.12
2023-05-11T14:16:37.967Z,30.47
2023-05-11T14:19:15.372Z,28.86
2023-05-11T14:22:02.042Z,28.91
2023-05-11T14:24:42.454Z,30.64
2023-05-11T14:27:27.319Z,30.96
2023-05-11T14:30:09.301Z,31.57
2023-05-11T14:33:08.055Z,31.00
2023-05-11T14:35:55.895Z,31.80
2023-05-11T14:38:38.752Z,31.00
2023-05-11T14:41:25.766Z,29.76
2023-05-11T14:44:06.829Z,29.88
2023-05-11T14:46:54.015Z,29.76
2023-05-11T14:49:46.114Z,29.61
2023-05-11T14:52:27.057Z,29.44
2023-05-11T14:55:25.720Z,29.19
2023-05-11T14:58:14.772Z,29.36
2023-05-11T15:00:58.991Z,30.14
2023-05-11T15:03:41.293Z,28.56
2023-05-11T15:06:30.904Z,29.70
2023-05-11T15:12:28.087Z,29.76
2023-05-11T15:15:23.387Z,31.39
2023-05-11T15:17:59.019Z,31.32
2023-05-11T15:20:48.812Z,30.91
2023-05-11T15:23:30.740Z,31.13
2023-05-11T15:26:24.498Z,31.22
2023-05-11T15:29:00.980Z,33.34
2023-05-11T15:31:39.942Z,33.21
2023-05-11T15:34:20.754Z,33.13
2023-05-11T15:37:11.397Z,31.69
2023-05-11T15:39:47.198Z,32.50
2023-05-11T15:42:37.044Z,31.96
2023-05-11T15:45:20.781Z,32.05
2023-05-11T15:50:55.395Z,35.37
2023-05-11T15:53:40.028Z,33.96
2023-05-11T15:56:20.907Z,33.83
2023-05-11T15:59:05.377Z,33.68
2023-05-11T16:02:01.051Z,34.85
2023-05-11T16:04:47.930Z,34.12
2023-05-11T16:07:31.432Z,35.43
2023-05-11T16:10:20.471Z,36.91
2023-05-11T16:13:04.026Z,34.60
2023-05-11T16:15:51.245Z,36.39
2023-05-11T16:18:33.093Z,36.31
2023-05-11T16:21:34.885Z,36.16
2023-05-11T16:24:27.032Z,36.09
2023-05-11T16:27:11.383Z,35.62
2023-05-11T16:30:21.786Z,36.30
2023-05-11T16:33:14.860Z,37.57
2023-05-11T16:39:12.345Z,37.78
2023-05-11T16:42:05.953Z,38.16
2023-05-11T16:44:49.280Z,41.01
2023-05-11T16:47:33.044Z,38.38
2023-05-11T16:50:24.564Z,38.19
2023-05-11T16:53:16.298Z,38.65
2023-05-11T16:56:03.375Z,38.87
2023-05-11T16:58:50.360Z,39.45
2023-05-11T17:01:46.657Z,39.90
2023-05-11T17:04:32.899Z,39.58
2023-05-11T17:07:17.032Z,39.75
2023-05-11T17:09:59.659Z,40.45
2023-05-11T17:13:01.466Z,40.28
2023-05-11T17:15:36.843Z,39.88
2023-05-11T17:18:20.866Z,43.14
2023-05-11T17:21:04.416Z,41.88
2023-05-11T17:23:48.036Z,41.90
2023-05-11T17:26:43.175Z,41.04
2023-05-11T17:29:31.171Z,42.26
2023-05-11T17:32:17.343Z,42.47
2023-05-11T17:35:08.006Z,42.90
2023-05-11T17:37:48.673Z,44.01
2023-05-11T17:40:33.241Z,43.55
2023-05-11T17:43:13.892Z,43.66
2023-05-11T17:46:03.125Z,43.85
2023-05-11T17:48:53.175Z,45.52
2023-05-11T17:51:32.956Z,46.62
2023-05-11T17:54:13.847Z,47.18
2023-05-11T17:57:05.152Z,47.49
2023-05-11T17:59:47.603Z,47.50
2023-05-11T18:02:38.007Z,49.02
2023-05-11T18:05:40.503Z,48.32
2023-05-11T18:08:34.694Z,51.08
2023-05-11T18:11:30.068Z,50.52
2023-05-11T18:14:10.806Z,50.22
2023-05-11T18:16:54.658Z,51.83
2023-05-11T18:19:39.017Z,52.65
2023-05-11T18:22:17.409Z,52.51
2023-05-11T18:25:03.078Z,52.74
2023-05-11T18:27:46.886Z,52.90
2023-05-11T18:30:29.645Z,52.63
2023-05-11T18:33:22.200Z,55.00
2023-05-11T18:35:59.046Z,53.66
2023-05-11T18:38:37.051Z,54.28
2023-05-11T18:41:22.042Z,52.89
2023-05-11T18:43:57.410Z,53.71
2023-05-11T18:46:38.772Z,54.82
2023-05-11T18:49:24.268Z,53.54
2023-05-11T18:52:05.921Z,52.66
2023-05-11T18:54:46.655Z,52.76
2023-05-11T18:57:35.705Z,53.26
2023-05-11T19:00:20.203Z,51.48
2023-05-11T19:03:06.164Z,54.52
2023-05-11T19:05:57.468Z,54.63
2023-05-11T19:08:35.271Z,51.73
2023-05-11T19:11:29.482Z,53.61
2023-05-11T19:14:08.339Z,53.05
2023-05-11T19:16:50.243Z,53.60
2023-05-11T19:19:31.414Z,54.68
2023-05-11T19:22:18.172Z,54.51
2023-05-11T19:25:07.340Z,53.76
2023-05-11T19:27:46.344Z,57.01
2023-05-11T19:30:27.662Z,56.61
2023-05-11T19:33:08.489Z,56.21
2023-05-11T19:35:49.382Z,55.44
2023-05-11T19:38:31.007Z,56.13
2023-05-11T19:41:16.649Z,56.63
2023-05-11T19:44:09.095Z,56.46
2023-05-11T19:46:56.466Z,56.94
2023-05-11T19:49:39.495Z,58.19
2023-05-11T19:52:24.338Z,60.48
2023-05-11T19:55:08.812Z,61.46
2023-05-11T19:57:44.665Z,63.27
2023-05-11T20:00:31.528Z,62.50
2023-05-11T20:03:26.454Z,59.58
2023-05-11T20:06:14.185Z,61.99
2023-05-11T20:08:53.135Z,62.88
2023-05-11T20:11:39.472Z,61.34
2023-05-11T20:14:14.848Z,62.82
2023-05-11T20:17:10.272Z,61.92
2023-05-11T20:19:53.201Z,63.50
2023-05-11T20:22:41.001Z,63.47
2023-05-11T20:25:24.214Z,64.40
2023-05-11T20:28:11.891Z,65.19
2023-05-11T20:30:55.278Z,64.33
2023-05-11T20:36:39.384Z,67.92
2023-05-11T20:39:27.233Z,69.09
2023-05-11T20:42:11.184Z,68.96
2023-05-11T20:45:02.596Z,69.68
2023-05-11T20:47:57.170Z,71.59
2023-05-11T20:50:38.995Z,73.41
2023-05-11T20:53:23.445Z,72.77
2023-05-11T20:56:10.007Z,73.71
2023-05-11T20:59:04.552Z,73.71
2023-05-11T21:01:53.500Z,74.10
2023-05-11T21:04:31.267Z,74.96
2023-05-11T21:07:11.481Z,76.63
2023-05-11T21:10:09.524Z,76.86
2023-05-11T21:12:41.977Z,77.05
2023-05-11T21:15:17.028Z,77.13
2023-05-11T21:18:18.401Z,77.58
2023-05-11T21:21:34.681Z,77.34
2023-05-11T21:24:17.923Z,76.47
2023-05-11T21:27:06.832Z,77.39
2023-05-11T21:29:43.258Z,79.52
2023-05-11T21:32:28.014Z,80.07
2023-05-11T21:35:11.710Z,81.99
2023-05-11T21:38:01.017Z,79.93
2023-05-11T21:40:56.857Z,79.95
2023-05-11T21:43:37.506Z,79.72
2023-05-11T21:46:18.325Z,80.91
2023-05-11T21:49:10.594Z,81.83
2023-05-11T21:51:54.406Z,82.10
2023-05-11T21:54:37.381Z,82.83
2023-05-11T21:57:20.883Z,83.47
2023-05-11T22:00:04.907Z,81.63
2023-05-11T22:02:32.750Z,82.53
2023-05-11T22:05:18.926Z,83.11
2023-05-11T22:08:13.353Z,83.87
2023-05-11T22:11:06.940Z,85.56
2023-05-11T22:13:53.380Z,85.33
2023-05-11T22:16:37.243Z,85.29
2023-05-11T22:19:20.441Z,84.94
2023-05-11T22:22:03.270Z,84.06
2023-05-11T22:24:45.169Z,85.29
2023-05-11T22:27:23.509Z,86.12
2023-05-11T22:30:01.809Z,86.37
2023-05-11T22:32:48.021Z,86.39
2023-05-11T22:35:26.603Z,86.31
2023-05-11T22:38:09.783Z,87.11
2023-05-11T22:40:41.118Z,87.40
2023-05-11T22:43:30.363Z,87.71
2023-05-11T22:46:17.273Z,87.65
2023-05-11T22:48:58.047Z,88.25
2023-05-11T22:51:42.372Z,88.80
2023-05-11T22:54:31.783Z,90.13
2023-05-11T22:57:17.983Z,90.40
2023-05-11T23:00:04.369Z,89.98
2023-05-11T23:02:49.416Z,89.69
2023-05-11T23:05:35.534Z,90.32
2023-05-11T23:08:21.636Z,91.41
2023-05-11T23:11:04.372Z,92.01
2023-05-11T23:13:42.833Z,93.22
2023-05-11T23:16:26.721Z,92.83
2023-05-11T23:19:10.086Z,93.10
2023-05-11T23:21:58.898Z,92.55
2023-05-11T23:24:48.271Z,90.80
2023-05-11T23:27:31.977Z,90.98
2023-05-11T23:30:14.051Z,92.17
2023-05-11T23:32:51.467Z,93.93
2023-05-11T23:35:38.326Z,95.24
2023-05-11T23:38:30.844Z,95.72
2023-05-11T23:41:11.617Z,95.43
2023-05-11T23:43:55.261Z,95.77
2023-05-11T23:46:36.066Z,96.63
2023-05-11T23:49:13.995Z,96.76
2023-05-11T23:52:01.890Z,98.19
2023-05-11T23:54:46.246Z,98.27
2023-05-11T23:57:26.961Z,97.18
